Time,TemperatureF,DewpointF,PressureIn,WindDirection,WindDirectionDegrees,WindSpeedMPH,WindSpeedGustMPH,Humidity,HourlyPrecipIn,Conditions,Clouds,dailyrainin,SolarRadiationWatts/m^2,SoftwareType,DateUTC
2013-01-08 00:02:00,37.0,24.0,-100.00,NW,312,5.0,15.0,58,0.00,,,0.00,0.000000,,2013-01-08 07:02:00,
2013-01-08 00:11:00,37.0,24.0,-100.00,NW,312,5.0,15.0,58,0.00,,,0.00,0.000000,,2013-01-08 07:11:00,
2013-01-08 00:22:00,37.0,24.0,-100.00,NW,312,5.0,15.0,58,0.00,,,0.00,0.000000,,2013-01-08 07:22:00,
2013-01-08 00:52:00,38.0,24.0,-100.00,NW,323,9.0,16.0,56,0.00,,,0.00,0.000000,,2013-01-08 07:52:00,
2013-01-08 01:02:00,38.0,24.0,-100.00,NW,323,9.0,16.0,56,0.00,,,0.00,0.000000,,2013-01-08 08:02:00,
2013-01-08 01:12:00,38.0,24.0,-100.00,NW,323,9.0,16.0,56,0.00,,,0.00,0.000000,,2013-01-08 08:12:00,
2013-01-08 01:22:00,38.0,24.0,-100.00,NW,323,9.0,16.0,56,0.00,,,0.00,0.000000,,2013-01-08 08:22:00,
2013-01-08 01:53:00,38.0,23.0,-100.00,NNW,338,13.0,27.0,54,0.00,,,0.00,0.000000,,2013-01-08 08:53:00,
2013-01-08 02:02:00,38.0,23.0,-100.00,NNW,338,13.0,27.0,54,0.00,,,0.00,0.000000,,2013-01-08 09:02:00,
2013-01-08 02:12:00,38.0,23.0,-100.00,NNW,338,13.0,27.0,54,0.00,,,0.00,0.000000,,2013-01-08 09:12:00,
2013-01-08 02:22:00,38.0,23.0,-100.00,NNW,338,13.0,27.0,54,0.00,,,0.00,0.000000,,2013-01-08 09:22:00,
2013-01-08 02:52:00,35.0,25.0,-100.00,NNW,339,9.0,24.0,66,0.00,,,0.00,0.000000,,2013-01-08 09:52:00,
2013-01-08 03:02:00,35.0,25.0,-100.00,NNW,339,9.0,24.0,66,0.00,,,0.00,0.000000,,2013-01-08 10:02:00,
2013-01-08 03:12:00,35.0,25.0,-100.00,NNW,339,9.0,24.0,66,0.00,,,0.00,0.000000,,2013-01-08 10:12:00,
2013-01-08 03:22:00,35.0,25.0,-100.00,NNW,339,9.0,24.0,66,0.00,,,0.00,0.000000,,2013-01-08 10:22:00,
2013-01-08 03:52:00,33.0,25.0,-100.00,NNW,332,4.0,27.0,72,0.00,,,0.00,0.000000,,2013-01-08 10:52:00,
2013-01-08 04:02:00,33.0,25.0,-100.00,NNW,332,4.0,27.0,72,0.00,,,0.00,0.000000,,2013-01-08 11:02:00,
2013-01-08 04:12:00,33.0,25.0,-100.00,NNW,332,4.0,27.0,72,0.00,,,0.00,0.000000,,2013-01-08 11:12:00,
2013-01-08 04:22:00,33.0,25.0,-100.00,NNW,332,4.0,27.0,72,0.00,,,0.00,0.000000,,2013-01-08 11:22:00,
2013-01-08 04:53:00,33.0,24.0,-100.00,NNW,334,8.0,15.0,68,0.00,,,0.00,0.000000,,2013-01-08 11:53:00,
2013-01-08 05:02:00,33.0,24.0,-100.00,NNW,334,8.0,15.0,68,0.00,,,0.00,0.000000,,2013-01-08 12:02:00,
2013-01-08 05:12:00,33.0,24.0,-100.00,NNW,334,8.0,15.0,68,0.00,,,0.00,0.000000,,2013-01-08 12:12:00,
2013-01-08 05:22:00,33.0,24.0,-100.00,NNW,334,8.0,15.0,68,0.00,,,0.00,0.000000,,2013-01-08 12:22:00,
2013-01-08 05:53:00,33.0,24.0,-100.00,NW,316,4.0,14.0,70,0.00,,,0.00,0.000000,,2013-01-08 12:53:00,
2013-01-08 06:03:00,33.0,24.0,-100.00,NW,316,4.0,14.0,70,0.00,,,0.00,0.000000,,2013-01-08 13:03:00,
2013-01-08 06:12:00,33.0,24.0,-100.00,NW,316,4.0,14.0,70,0.00,,,0.00,0.000000,,2013-01-08 13:12:00,
2013-01-08 06:22:00,33.0,24.0,-100.00,NW,316,4.0,14.0,70,0.00,,,0.00,0.000000,,2013-01-08 13:22:00,
2013-01-08 06:53:00,34.0,22.0,-100.00,NW,306,5.0,16.0,61,0.00,,,0.00,0.000000,,2013-01-08 13:53:00,
2013-01-08 07:02:00,34.0,22.0,-100.00,NW,306,5.0,16.0,61,0.00,,,0.00,0.000000,,2013-01-08 14:02:00,
2013-01-08 07:12:00,34.0,22.0,-100.00,NW,306,5.0,16.0,61,0.00,,,0.00,0.000000,,2013-01-08 14:12:00,
2013-01-08 07:22:00,34.0,22.0,-100.00,NW,306,5.0,16.0,61,0.00,,,0.00,0.000000,,2013-01-08 14:22:00,
2013-01-08 07:53:00,34.0,22.0,-100.00,West,262,3.0,16.0,62,0.00,,,0.00,0.000000,,2013-01-08 14:53:00,
2013-01-08 08:02:00,34.0,22.0,-100.00,West,262,3.0,16.0,62,0.00,,,0.00,0.000000,,2013-01-08 15:02:00,
2013-01-08 08:12:00,34.0,22.0,-100.00,West,262,3.0,16.0,62,0.00,,,0.00,0.000000,,2013-01-08 15:12:00,
2013-01-08 08:22:00,34.0,22.0,-100.00,West,262,3.0,16.0,62,0.00,,,0.00,0.000000,,2013-01-08 15:22:00,
2013-01-08 08:53:00,32.0,23.0,-100.00,NNE,20,1.0,10.0,70,0.00,,,0.00,0.000000,,2013-01-08 15:53:00,
2013-01-08 09:03:00,32.0,23.0,-100.00,NNE,20,1.0,10.0,70,0.00,,,0.00,0.000000,,2013-01-08 16:03:00,
2013-01-08 09:12:00,32.0,23.0,-100.00,NNE,20,1.0,10.0,70,0.00,,,0.00,0.000000,,2013-01-08 16:12:00,
2013-01-08 09:22:00,32.0,23.0,-100.00,NNE,20,1.0,10.0,70,0.00,,,0.00,0.000000,,2013-01-08 16:22:00,
2013-01-08 09:53:00,30.0,21.0,-100.00,South,175,2.0,6.0,70,0.00,,,0.00,8.000000,,2013-01-08 16:53:00,
2013-01-08 10:12:00,30.0,21.0,-100.00,South,175,2.0,6.0,70,0.00,,,0.00,8.000000,,2013-01-08 17:12:00,
2013-01-08 10:22:00,30.0,21.0,-100.00,South,175,2.0,6.0,70,0.00,,,0.00,8.000000,,2013-01-08 17:22:00,
2013-01-08 10:53:00,38.0,20.0,-100.00,NNW,346,3.0,7.0,48,0.00,,,0.00,101.000000,,2013-01-08 17:53:00,
2013-01-08 11:03:00,38.0,20.0,-100.00,NNW,346,3.0,7.0,48,0.00,,,0.00,101.000000,,2013-01-08 18:03:00,
2013-01-08 11:12:00,38.0,20.0,-100.00,NNW,346,3.0,7.0,48,0.00,,,0.00,101.000000,,2013-01-08 18:12:00,
2013-01-08 11:22:00,38.0,20.0,-100.00,NNW,346,3.0,7.0,48,0.00,,,0.00,101.000000,,2013-01-08 18:22:00,
2013-01-08 11:53:00,40.0,18.0,-100.00,WNW,292,3.0,11.0,40,0.00,,,0.00,136.000000,,2013-01-08 18:53:00,
2013-01-08 12:03:00,40.0,18.0,-100.00,WNW,292,3.0,11.0,40,0.00,,,0.00,136.000000,,2013-01-08 19:03:00,
2013-01-08 12:12:00,40.0,18.0,-100.00,WNW,292,3.0,11.0,40,0.00,,,0.00,136.000000,,2013-01-08 19:12:00,
2013-01-08 12:22:00,40.0,18.0,-100.00,WNW,292,3.0,11.0,40,0.00,,,0.00,136.000000,,2013-01-08 19:22:00,
2013-01-08 12:53:00,41.0,19.0,-100.00,WSW,245,0.0,8.0,40,0.00,,,0.00,366.000000,,2013-01-08 19:53:00,
2013-01-08 13:02:00,41.0,19.0,-100.00,WSW,245,0.0,8.0,40,0.00,,,0.00,366.000000,,2013-01-08 20:02:00,
2013-01-08 13:12:00,41.0,19.0,-100.00,WSW,245,0.0,8.0,40,0.00,,,0.00,366.000000,,2013-01-08 20:12:00,
2013-01-08 13:22:00,41.0,19.0,-100.00,WSW,245,0.0,8.0,40,0.00,,,0.00,366.000000,,2013-01-08 20:22:00,
2013-01-08 13:53:00,39.0,22.0,-100.00,NNE,21,0.0,6.0,50,0.00,,,0.00,172.000000,,2013-01-08 20:53:00,
2013-01-08 14:02:00,39.0,22.0,-100.00,NNE,21,0.0,6.0,50,0.00,,,0.00,172.000000,,2013-01-08 21:02:00,
2013-01-08 14:12:00,39.0,22.0,-100.00,NNE,21,0.0,6.0,50,0.00,,,0.00,172.000000,,2013-01-08 21:12:00,
2013-01-08 14:22:00,39.0,22.0,-100.00,NNE,21,0.0,6.0,50,0.00,,,0.00,172.000000,,2013-01-08 21:22:00,
2013-01-08 14:53:00,38.0,22.0,-100.00,NE,50,2.0,5.0,52,0.00,,,0.00,123.000000,,2013-01-08 21:53:00,
2013-01-08 15:02:00,38.0,22.0,-100.00,NE,50,2.0,5.0,52,0.00,,,0.00,123.000000,,2013-01-08 22:02:00,
2013-01-08 15:12:00,38.0,22.0,-100.00,NE,50,2.0,5.0,52,0.00,,,0.00,123.000000,,2013-01-08 22:12:00,
2013-01-08 15:22:00,38.0,22.0,-100.00,NE,50,2.0,5.0,52,0.00,,,0.00,123.000000,,2013-01-08 22:22:00,
2013-01-08 15:53:00,39.0,21.0,-100.00,WSW,251,0.0,4.0,49,0.00,,,0.00,126.000000,,2013-01-08 22:53:00,
2013-01-08 16:02:00,39.0,21.0,-100.00,WSW,251,0.0,4.0,49,0.00,,,0.00,126.000000,,2013-01-08 23:02:00,
2013-01-08 16:12:00,39.0,21.0,-100.00,WSW,251,0.0,4.0,49,0.00,,,0.00,126.000000,,2013-01-08 23:12:00,
2013-01-08 16:22:00,39.0,21.0,-100.00,WSW,251,0.0,4.0,49,0.00,,,0.00,126.000000,,2013-01-08 23:22:00,
2013-01-08 16:53:00,39.0,26.0,-100.00,SW,225,5.0,13.0,60,0.00,,,0.00,95.000000,,2013-01-08 23:53:00,
2013-01-08 17:02:00,39.0,26.0,-100.00,SW,225,5.0,13.0,60,0.00,,,0.00,95.000000,,2013-01-09 00:02:00,
2013-01-08 17:12:00,39.0,26.0,-100.00,SW,225,5.0,13.0,60,0.00,,,0.00,95.000000,,2013-01-09 00:12:00,
2013-01-08 17:22:00,39.0,26.0,-100.00,SW,225,5.0,13.0,60,0.00,,,0.00,95.000000,,2013-01-09 00:22:00,
2013-01-08 17:53:00,38.0,27.0,-100.00,SSW,201,6.0,13.0,65,0.00,,,0.00,38.000000,,2013-01-09 00:53:00,
2013-01-08 18:02:00,38.0,27.0,-100.00,SSW,201,6.0,13.0,65,0.00,,,0.00,38.000000,,2013-01-09 01:02:00,
2013-01-08 18:12:00,38.0,27.0,-100.00,SSW,201,6.0,13.0,65,0.00,,,0.00,38.000000,,2013-01-09 01:12:00,
2013-01-08 18:22:00,38.0,27.0,-100.00,SSW,201,6.0,13.0,65,0.00,,,0.00,38.000000,,2013-01-09 01:22:00,
2013-01-08 18:52:00,36.0,27.0,-100.00,SSW,204,6.0,13.0,70,0.00,,,0.00,0.000000,,2013-01-09 01:52:00,
2013-01-08 19:02:00,36.0,27.0,-100.00,SSW,204,6.0,13.0,70,0.00,,,0.00,0.000000,,2013-01-09 02:02:00,
2013-01-08 19:12:00,36.0,27.0,-100.00,SSW,204,6.0,13.0,70,0.00,,,0.00,0.000000,,2013-01-09 02:12:00,
2013-01-08 19:22:00,36.0,27.0,-100.00,SSW,204,6.0,13.0,70,0.00,,,0.00,0.000000,,2013-01-09 02:22:00,
2013-01-08 19:53:00,37.0,28.0,-100.00,SSW,207,7.0,12.0,69,0.00,,,0.00,0.000000,,2013-01-09 02:53:00,
2013-01-08 20:03:00,37.0,28.0,-100.00,SSW,207,7.0,12.0,69,0.00,,,0.00,0.000000,,2013-01-09 03:03:00,
2013-01-08 20:12:00,37.0,28.0,-100.00,SSW,207,7.0,12.0,69,0.00,,,0.00,0.000000,,2013-01-09 03:12:00,
2013-01-08 20:22:00,37.0,28.0,-100.00,SSW,207,7.0,12.0,69,0.00,,,0.00,0.000000,,2013-01-09 03:22:00,
2013-01-08 20:53:00,40.0,30.0,-100.00,SW,215,7.0,15.0,67,0.00,,,0.00,0.000000,,2013-01-09 03:53:00,
2013-01-08 21:02:00,40.0,30.0,-100.00,SW,215,7.0,15.0,67,0.00,,,0.00,0.000000,,2013-01-09 04:02:00,
2013-01-08 21:12:00,40.0,30.0,-100.00,SW,215,7.0,15.0,67,0.00,,,0.00,0.000000,,2013-01-09 04:12:00,
2013-01-08 21:22:00,40.0,30.0,-100.00,SW,215,7.0,15.0,67,0.00,,,0.00,0.000000,,2013-01-09 04:22:00,
2013-01-08 21:52:00,39.0,29.0,-100.00,SSW,206,7.0,15.0,66,0.00,,,0.00,0.000000,,2013-01-09 04:52:00,
2013-01-08 22:03:00,39.0,29.0,-100.00,SSW,206,7.0,15.0,66,0.00,,,0.00,0.000000,,2013-01-09 05:03:00,
2013-01-08 22:12:00,39.0,29.0,-100.00,SSW,206,7.0,15.0,66,0.00,,,0.00,0.000000,,2013-01-09 05:12:00,
2013-01-08 22:22:00,39.0,29.0,-100.00,SSW,206,7.0,15.0,66,0.00,,,0.00,0.000000,,2013-01-09 05:22:00,
2013-01-08 22:52:00,40.0,28.0,-100.00,SSW,209,7.0,18.0,62,0.00,,,0.00,0.000000,,2013-01-09 05:52:00,
2013-01-08 23:02:00,40.0,28.0,-100.00,SSW,209,7.0,18.0,62,0.00,,,0.00,0.000000,,2013-01-09 06:02:00,
2013-01-08 23:12:00,40.0,28.0,-100.00,SSW,209,7.0,18.0,62,0.00,,,0.00,0.000000,,2013-01-09 06:12:00,
2013-01-08 23:22:00,40.0,28.0,-100.00,SSW,209,7.0,18.0,62,0.00,,,0.00,0.000000,,2013-01-09 06:22:00,
2013-01-08 23:52:00,39.0,27.0,-100.00,SW,214,10.0,22.0,61,0.00,,,0.00,0.000000,,2013-01-09 06:52:00,